Time;durP1;ratioP1;P1;durP2;ratioP2;P2;SDS_P1;SDS_P2;PMS_P1;PMS_P2;Temp;Humidity;BMP_temperature;BMP_pressure;BME280_temperature;BME280_humidity;BME280_pressure;Samples;Min_cycle;Max_cycle;Signal;HPM_P1;HPM_P2
2023/09/08 00:00:12;;;;;;;;;;;;;;;22.20;43.26;101641.34;4943225;28;125060;-77
2023/09/08 00:02:39;;;;;;;;;;;;;;;22.15;43.33;101639.03;4942223;28;116174;-76
2023/09/08 00:05:06;;;;;;;;;;;;;;;22.12;43.29;101633.03;4946124;28;114573;-76
2023/09/08 00:07:33;;;;;;;;;;;;;;;22.09;43.23;101633.25;4942808;28;124775;-76
2023/09/08 00:10:00;;;;;;;;;;;;;;;22.05;43.35;101626.41;4942516;28;123987;-76
2023/09/08 00:12:27;;;;;;;;;;;;;;;22.01;43.41;101630.34;4944909;28;114206;-76
2023/09/08 00:14:54;;;;;;;;;;;;;;;21.96;43.42;101623.47;4944483;28;114006;-76
2023/09/08 00:17:21;;;;;;;;;;;;;;;21.94;43.40;101629.97;4940474;28;124258;-76
2023/09/08 00:19:48;;;;;;;;;;;;;;;21.90;43.44;101629.34;4942030;28;124871;-75
2023/09/08 00:22:15;;;;;;;;;;;;;;;21.87;43.60;101635.00;4945049;28;113748;-76
2023/09/08 00:24:42;;;;;;;;;;;;;;;21.84;43.47;101640.63;4945782;28;113948;-76
2023/09/08 00:27:09;;;;;;;;;;;;;;;21.82;43.54;101630.97;4939845;28;123971;-76
2023/09/08 00:29:36;;;;;;;;;;;;;;;21.79;43.64;101642.84;4941020;28;124859;-76
2023/09/08 00:32:04;;;;;;;;;;;;;;;21.76;43.53;101637.72;4948975;28;114830;-76
2023/09/08 00:34:31;;;;;;;;;;;;;;;21.72;43.57;101634.41;4943543;28;115037;-76
2023/09/08 00:36:58;;;;;;;;;;;;;;;21.68;43.59;101640.13;4935807;28;123582;-76
2023/09/08 00:39:25;;;;;;;;;;;;;;;21.66;43.67;101636.72;4937200;28;123077;-76
2023/09/08 00:41:52;;;;;;;;;;;;;;;21.63;43.69;101642.38;4940069;28;114142;-76
2023/09/08 00:44:19;;;;;;;;;;;;;;;21.61;43.74;101644.31;4946391;28;114474;-76
2023/09/08 00:46:46;;;;;;;;;;;;;;;21.57;43.72;101633.78;4940993;28;123249;-76
2023/09/08 00:49:13;;;;;;;;;;;;;;;21.55;43.71;101633.03;4943735;28;123185;-76
2023/09/08 00:51:41;;;;;;;;;;;;;;;21.52;43.84;101633.28;4939962;28;115154;-75
2023/09/08 00:54:08;;;;;;;;;;;;;;;21.50;43.76;101632.53;4946640;28;114019;-76
2023/09/08 00:56:37;;;;;;;;;;;;;;;21.48;43.87;101634.50;4942554;28;124498;-76
2023/09/08 00:59:04;;;;;;;;;;;;;;;21.46;43.89;101633.75;4945214;28;124889;-76
2023/09/08 01:01:31;;;;;;;;;;;;;;;21.44;43.84;101627.63;4942175;28;115244;-77
2023/09/08 01:03:58;;;;;;;;;;;;;;;21.44;43.94;101626.75;4939113;28;114466;-76
2023/09/08 01:06:26;;;;;;;;;;;;;;;21.41;43.94;101627.84;4941842;28;125290;-76
2023/09/08 01:08:53;;;;;;;;;;;;;;;21.39;43.97;101621.72;4944275;28;124402;-76
2023/09/08 01:11:21;;;;;;;;;;;;;;;21.38;44.05;101622.72;4935400;28;114462;-76
2023/09/08 01:13:48;;;;;;;;;;;;;;;21.38;44.07;101618.16;4923222;28;113039;-76
2023/09/08 01:16:15;;;;;;;;;;;;;;;21.37;44.04;101627.22;4941198;28;124874;-74
2023/09/08 01:18:43;;;;;;;;;;;;;;;21.38;44.08;101622.72;4947907;28;123404;-76
2023/09/08 01:21:44;;;;;;;;;;;;;;;21.37;44.08;101620.97;4957316;28;113619;-76
2023/09/08 01:24:23;;;;;;;;;;;;;;;21.34;44.04;101631.97;4958513;28;114407;-76
2023/09/08 01:26:50;;;;;;;;;;;;;;;21.30;44.09;101630.50;4943627;28;124447;-76
2023/09/08 01:29:19;;;;;;;;;;;;;;;21.25;44.09;101627.31;4945866;28;125083;-74
2023/09/08 01:31:46;;;;;;;;;;;;;;;21.22;44.19;101623.03;4931325;28;113824;-74
2023/09/08 01:34:13;;;;;;;;;;;;;;;21.20;44.23;101631.22;4945866;28;113317;-74
2023/09/08 01:36:40;;;;;;;;;;;;;;;21.20;44.23;101631.22;4939358;28;124250;-74
2023/09/08 01:39:07;;;;;;;;;;;;;;;21.20;44.24;101630.38;4944221;28;125011;-76
2023/09/08 01:41:34;;;;;;;;;;;;;;;21.19;44.23;101624.13;4939408;28;114940;-75
2023/09/08 01:44:05;;;;;;;;;;;;;;;21.19;44.31;101628.63;4945203;28;114349;-76
2023/09/08 01:46:34;;;;;;;;;;;;;;;21.17;44.30;101626.09;4941833;28;124557;-76
2023/09/08 01:49:01;;;;;;;;;;;;;;;21.16;44.33;101621.66;4941402;28;122366;-74
2023/09/08 01:51:28;;;;;;;;;;;;;;;21.14;44.44;101628.16;4944533;28;113381;-76
2023/09/08 01:53:55;;;;;;;;;;;;;;;21.13;44.45;101624.59;4942047;28;114019;-76
2023/09/08 01:56:22;;;;;;;;;;;;;;;21.13;44.46;101624.59;4934694;28;124330;-76
2023/09/08 01:58:49;;;;;;;;;;;;;;;21.13;44.43;101619.19;4939290;28;122852;-76
2023/09/08 02:01:16;;;;;;;;;;;;;;;21.13;44.49;101624.59;4943585;28;113128;-76
2023/09/08 02:03:43;;;;;;;;;;;;;;;21.11;44.51;101621.16;4939407;28;113887;-76
2023/09/08 02:06:10;;;;;;;;;;;;;;;21.11;44.54;101626.53;4932777;28;125101;-76
2023/09/08 02:08:37;;;;;;;;;;;;;;;21.09;44.55;101623.13;4940985;28;124213;-76
2023/09/08 02:11:06;;;;;;;;;;;;;;;21.09;44.55;101625.81;4941791;28;114188;-76
2023/09/08 02:13:33;;;;;;;;;;;;;;;21.07;44.42;101614.28;4939820;28;113829;-76
2023/09/08 02:16:00;;;;;;;;;;;;;;;21.06;44.54;101617.09;4945718;28;125071;-76
2023/09/08 02:18:28;;;;;;;;;;;;;;;21.04;44.43;101619.94;4935823;28;124176;-76
2023/09/08 02:20:55;;;;;;;;;;;;;;;21.02;44.50;101615.63;4938816;28;114200;-74
2023/09/08 02:23:22;;;;;;;;;;;;;;;20.99;44.44;101617.59;4946104;28;115281;-76
2023/09/08 02:25:49;;;;;;;;;;;;;;;20.96;44.50;101616.97;4944222;28;124558;-76
2023/09/08 02:28:16;;;;;;;;;;;;;;;20.94;44.61;101613.53;4952138;28;123544;-75
2023/09/08 02:30:43;;;;;;;;;;;;;;;20.92;44.50;101612.78;4950816;28;116156;-74
2023/09/08 02:33:10;;;;;;;;;;;;;;;20.92;44.57;101615.47;4952776;28;114993;-74
2023/09/08 02:35:38;;;;;;;;;;;;;;;20.88;44.58;101608.63;4950203;28;125030;-75
2023/09/08 02:38:06;;;;;;;;;;;;;;;20.85;44.52;101619.63;4946816;28;123940;-75
2023/09/08 02:40:34;;;;;;;;;;;;;;;20.82;44.78;101620.72;4941076;28;113991;-76
2023/09/08 02:43:03;;;;;;;;;;;;;;;20.80;44.71;101623.53;4922132;28;115320;-76
2023/09/08 02:45:30;;;;;;;;;;;;;;;20.77;44.65;101623.75;4942260;28;123415;-76
2023/09/08 02:48:00;;;;;;;;;;;;;;;20.74;44.68;101618.59;4944840;28;124939;-76
2023/09/08 02:50:29;;;;;;;;;;;;;;;20.72;44.78;101623.25;4946753;28;113585;-76
2023/09/08 02:52:56;;;;;;;;;;;;;;;20.71;44.75;101613.44;4944484;28;113437;-75
2023/09/08 02:55:23;;;;;;;;;;;;;;;20.69;44.74;101610.00;4944592;28;124192;-76
2023/09/08 02:57:50;;;;;;;;;;;;;;;20.68;44.90;101613.69;4963433;28;124009;-76
2023/09/08 03:00:17;;;;;;;;;;;;;;;20.67;44.84;101611.97;4940896;28;114010;-76
2023/09/08 03:02:44;;;;;;;;;;;;;;;20.69;44.94;101619.94;4948956;28;113478;-76
2023/09/08 03:05:11;;;;;;;;;;;;;;;20.67;44.94;101617.34;4948018;28;123713;-75
2023/09/08 03:07:39;;;;;;;;;;;;;;;20.65;44.95;101616.59;4943743;28;123297;-76
2023/09/08 03:10:06;;;;;;;;;;;;;;;20.63;44.89;101615.88;4945319;28;114309;-76
2023/09/08 03:12:33;;;;;;;;;;;;;;;20.59;44.99;101608.97;4938450;28;112706;-75
2023/09/08 03:15:01;;;;;;;;;;;;;;;20.58;45.06;101623.38;4940390;28;123943;-76
2023/09/08 03:17:28;;;;;;;;;;;;;;;20.56;45.00;101606.50;4938474;28;123154;-76
2023/09/08 03:19:55;;;;;;;;;;;;;;;20.54;44.96;101606.59;4938196;28;115829;-76
2023/09/08 03:22:24;;;;;;;;;;;;;;;20.54;45.08;101613.84;4941542;28;114538;-76
2023/09/08 03:24:53;;;;;;;;;;;;;;;20.52;45.06;101613.09;4937388;28;125342;-76
2023/09/08 03:27:21;;;;;;;;;;;;;;;20.50;45.20;101609.66;4941236;28;124649;-76
2023/09/08 03:29:48;;;;;;;;;;;;;;;20.49;45.16;101613.31;4941212;28;113599;-76
2023/09/08 03:32:15;;;;;;;;;;;;;;;20.48;45.19;101608.91;4941761;28;114182;-76
2023/09/08 03:34:42;;;;;;;;;;;;;;;20.48;45.29;101614.31;4939763;28;124067;-76
2023/09/08 03:37:09;;;;;;;;;;;;;;;20.47;45.15;101609.88;4944328;28;123868;-76
2023/09/08 03:39:36;;;;;;;;;;;;;;;20.47;45.12;101609.88;4944285;28;112979;-76
2023/09/08 03:42:03;;;;;;;;;;;;;;;20.44;45.17;101605.59;4947747;28;114596;-76
2023/09/08 03:44:30;;;;;;;;;;;;;;;20.42;45.26;101603.00;4940100;28;123836;-75
2023/09/08 03:46:57;;;;;;;;;;;;;;;20.41;45.28;101609.34;4942696;28;124826;-76
2023/09/08 03:49:26;;;;;;;;;;;;;;;20.39;45.15;101600.53;4949763;28;114709;-76
2023/09/08 03:51:53;;;;;;;;;;;;;;;20.38;45.30;101600.66;4963077;28;111921;-76
2023/09/08 03:54:20;;;;;;;;;;;;;;;20.37;45.20;101594.41;4944433;28;125088;-76
2023/09/08 03:56:47;;;;;;;;;;;;;;;20.36;45.24;101600.78;4943039;28;123221;-76
2023/09/08 03:59:14;;;;;;;;;;;;;;;20.36;45.27;101598.09;4945139;28;113630;-76
2023/09/08 04:01:41;;;;;;;;;;;;;;;20.35;45.40;101600.91;4947508;28;112954;-76
2023/09/08 04:04:08;;;;;;;;;;;;;;;20.33;45.38;101603.69;4947863;28;124426;-76
2023/09/08 04:06:35;;;;;;;;;;;;;;;20.31;45.36;101608.34;4945966;28;123020;-75
2023/09/08 04:09:02;;;;;;;;;;;;;;;20.29;45.30;101604.91;4944563;28;115171;-76
2023/09/08 04:11:30;;;;;;;;;;;;;;;20.29;45.43;101604.06;4945916;28;115573;-76
2023/09/08 04:13:57;;;;;;;;;;;;;;;20.26;45.48;101597.03;4943319;28;125001;-76
2023/09/08 04:16:26;;;;;;;;;;;;;;;20.26;45.46;101607.81;4941623;28;125255;-76
2023/09/08 04:18:53;;;;;;;;;;;;;;;20.23;45.34;101608.91;4942909;28;116077;-73
2023/09/08 04:21:22;;;;;;;;;;;;;;;20.21;45.50;101602.78;4945107;28;114370;-73
2023/09/08 04:23:49;;;;;;;;;;;;;;;20.19;45.43;101602.03;4946112;28;123837;-76
2023/09/08 04:26:16;;;;;;;;;;;;;;;20.16;45.47;101601.41;4945153;28;123867;-76
2023/09/08 04:28:43;;;;;;;;;;;;;;;20.14;45.61;101603.34;4940866;28;114711;-76
2023/09/08 04:31:10;;;;;;;;;;;;;;;20.14;45.55;101603.34;4941684;28;113244;-76
2023/09/08 04:33:38;;;;;;;;;;;;;;;20.13;45.60;101596.22;4942449;28;124739;-75
2023/09/08 04:36:05;;;;;;;;;;;;;;;20.12;45.53;101599.91;4940094;28;124268;-75
2023/09/08 04:38:33;;;;;;;;;;;;;;;20.09;45.50;101600.13;4946147;28;114141;-76
2023/09/08 04:41:00;;;;;;;;;;;;;;;20.06;45.67;101600.34;4948590;28;114303;-75
2023/09/08 04:43:27;;;;;;;;;;;;;;;20.03;45.67;101602.28;4947629;28;123534;-75
2023/09/08 04:45:55;;;;;;;;;;;;;;;20.02;45.75;101605.97;4938798;28;123348;-76
2023/09/08 04:48:22;;;;;;;;;;;;;;;20.02;45.69;101599.69;4941042;28;113929;-75
2023/09/08 04:50:49;;;;;;;;;;;;;;;20.01;45.74;101598.84;4940931;28;113807;-76
2023/09/08 04:53:15;;;;;;;;;;;;;;;20.00;45.84;101602.53;4945774;28;124714;-76
2023/09/08 04:55:43;;;;;;;;;;;;;;;20.00;45.80;101602.53;4938738;28;123650;-75
2023/09/08 04:58:10;;;;;;;;;;;;;;;20.00;45.92;101599.84;4954466;28;116247;-75
2023/09/08 05:00:39;;;;;;;;;;;;;;;20.01;45.88;101598.00;4941547;28;114378;-75
2023/09/08 05:03:07;;;;;;;;;;;;;;;20.00;45.78;101602.53;4941373;28;124866;-75
2023/09/08 05:05:34;;;;;;;;;;;;;;;20.00;45.88;101597.16;4929204;28;123422;-76
2023/09/08 05:08:01;;;;;;;;;;;;;;;20.00;45.92;101607.91;4938600;28;114898;-75
2023/09/08 05:10:28;;;;;;;;;;;;;;;19.99;45.97;101600.78;4938987;28;113020;-75
2023/09/08 05:12:55;;;;;;;;;;;;;;;20.00;46.03;101602.53;4939423;28;124409;-76
2023/09/08 05:15:25;;;;;;;;;;;;;;;20.01;45.90;101598.84;4926708;28;123662;-76
2023/09/08 05:17:53;;;;;;;;;;;;;;;20.00;45.89;101607.91;4942363;28;113504;-75
2023/09/08 05:20:21;;;;;;;;;;;;;;;20.01;45.95;101604.22;4940927;28;114469;-75
2023/09/08 05:22:49;;;;;;;;;;;;;;;20.01;46.02;101609.59;4934883;28;124517;-75
2023/09/08 05:25:17;;;;;;;;;;;;;;;20.02;46.00;101611.34;4935334;28;123983;-76
2023/09/08 05:27:45;;;;;;;;;;;;;;;20.03;46.07;101604.97;4928485;28;114056;-75
2023/09/08 05:30:13;;;;;;;;;;;;;;;20.05;46.08;101615.63;4935445;28;112924;-75
2023/09/08 05:32:40;;;;;;;;;;;;;;;20.06;46.16;101611.09;4939405;28;125807;-76
2023/09/08 05:35:08;;;;;;;;;;;;;;;20.05;46.22;101609.41;4926480;28;123736;-76
2023/09/08 05:37:35;;;;;;;;;;;;;;;20.05;46.20;101606.72;4947310;28;114218;-76
2023/09/08 05:40:04;;;;;;;;;;;;;;;20.07;46.14;101612.84;4944963;28;113859;-75
2023/09/08 05:42:31;;;;;;;;;;;;;;;20.07;46.18;101610.13;4940373;28;125249;-75
2023/09/08 05:44:58;;;;;;;;;;;;;;;20.10;46.25;101612.59;4935254;28;124632;-75
2023/09/08 05:47:26;;;;;;;;;;;;;;;20.12;46.23;101610.66;4936650;28;115620;-76
2023/09/08 05:49:53;;;;;;;;;;;;;;;20.13;46.43;101615.06;4956684;28;114926;-75
2023/09/08 05:52:21;;;;;;;;;;;;;;;20.17;46.38;101619.25;4946089;28;124076;-76
2023/09/08 05:54:48;;;;;;;;;;;;;;;20.20;46.43;101619.03;4943534;28;123171;-76
2023/09/08 05:57:15;;;;;;;;;;;;;;;20.22;46.44;101609.00;4932722;28;113180;-76
2023/09/08 05:59:42;;;;;;;;;;;;;;;20.27;46.53;101614.91;4942784;28;114875;-76
2023/09/08 06:02:09;;;;;;;;;;;;;;;20.32;46.49;101618.09;4948993;28;125324;-76
2023/09/08 06:04:37;;;;;;;;;;;;;;;20.38;46.53;101623.06;4945783;28;124267;-76
2023/09/08 06:07:05;;;;;;;;;;;;;;;20.42;46.59;101618.31;4947183;28;114330;-75
2023/09/08 06:09:33;;;;;;;;;;;;;;;20.49;46.61;101613.31;4941949;28;113138;-76
2023/09/08 06:12:00;;;;;;;;;;;;;;;20.55;46.49;101618.22;4942660;28;123387;-76
2023/09/08 06:14:27;;;;;;;;;;;;;;;20.63;46.76;101621.25;4941872;28;125300;-76
2023/09/08 06:16:55;;;;;;;;;;;;;;;20.71;46.75;101623.38;4926448;28;114055;-76
2023/09/08 06:19:22;;;;;;;;;;;;;;;20.79;46.76;101619.13;4933688;28;115273;-76
2023/09/08 06:21:50;;;;;;;;;;;;;;;20.92;46.75;101626.25;4928429;28;123902;-76
2023/09/08 06:24:17;;;;;;;;;;;;;;;21.01;46.71;101625.56;4946042;28;123672;-76
2023/09/08 06:26:44;;;;;;;;;;;;;;;21.11;46.88;101621.16;4941301;28;115102;-76
2023/09/08 06:29:11;;;;;;;;;;;;;;;21.23;46.90;101618.50;4940503;28;113073;-76
2023/09/08 06:31:38;;;;;;;;;;;;;;;21.36;46.83;101624.63;4930303;28;123308;-76
2023/09/08 06:34:05;;;;;;;;;;;;;;;21.49;46.91;101614.66;4938562;28;123828;-76
2023/09/08 06:36:32;;;;;;;;;;;;;;;21.64;47.00;101622.50;4930270;28;115410;-80
2023/09/08 06:39:00;;;;;;;;;;;;;;;21.78;47.00;101624.97;4930706;28;113483;-76
2023/09/08 06:41:28;;;;;;;;;;;;;;;21.94;47.06;101622.75;4946664;28;123629;-76
2023/09/08 06:43:57;;;;;;;;;;;;;;;22.14;47.07;101625.66;4942004;28;123307;-76
2023/09/08 06:46:28;;;;;;;;;;;;;;;22.31;47.03;101633.25;4949508;28;115490;-76
2023/09/08 06:48:55;;;;;;;;;;;;;;;22.47;47.01;101624.75;4938074;28;113010;-75
2023/09/08 06:51:22;;;;;;;;;;;;;;;22.62;46.95;101622.63;4941629;28;124364;-76
2023/09/08 06:53:54;;;;;;;;;;;;;;;22.78;47.13;101624.03;4946631;28;125527;-76
2023/09/08 06:56:22;;;;;;;;;;;;;;;22.97;47.05;101634.97;4962245;28;115592;-76
2023/09/08 06:58:50;;;;;;;;;;;;;;;23.15;46.96;101626.31;4946324;28;112961;-76
2023/09/08 07:01:17;;;;;;;;;;;;;;;23.29;47.00;101628.69;4937321;28;123701;-75
2023/09/08 07:03:45;;;;;;;;;;;;;;;23.45;47.05;101634.47;4944171;28;123594;-75
2023/09/08 07:06:12;;;;;;;;;;;;;;;23.61;47.09;101633.13;4948385;28;114584;-76
2023/09/08 07:08:39;;;;;;;;;;;;;;;23.76;47.04;101639.88;4951935;28;113238;-76
2023/09/08 07:11:07;;;;;;;;;;;;;;;23.93;46.98;101637.56;4942854;28;124490;-76
2023/09/08 07:13:34;;;;;;;;;;;;;;;24.09;47.00;101637.88;4942100;28;124010;-75
2023/09/08 07:16:01;;;;;;;;;;;;;;;24.28;46.97;101643.38;4944305;28;114514;-76
2023/09/08 07:18:28;;;;;;;;;;;;;;;24.46;46.76;101639.97;4940883;28;112908;-76
2023/09/08 07:20:55;;;;;;;;;;;;;;;24.63;46.76;101642.00;4942542;28;123908;-76
2023/09/08 07:23:23;;;;;;;;;;;;;;;24.79;46.71;101635.16;4942781;28;126219;-76
2023/09/08 07:25:51;;;;;;;;;;;;;;;24.94;46.66;101639.16;4937033;28;115112;-75
2023/09/08 07:28:21;;;;;;;;;;;;;;;25.06;46.94;101638.00;4938306;28;114399;-76
2023/09/08 07:30:51;;;;;;;;;;;;;;;25.18;46.70;101635.97;4935356;28;125643;-76
2023/09/08 07:33:19;;;;;;;;;;;;;;;25.30;46.77;101634.00;4944663;28;123234;-76
2023/09/08 07:35:47;;;;;;;;;;;;;;;25.43;46.58;101631.84;4940115;28;112960;-75
2023/09/08 07:38:14;;;;;;;;;;;;;;;25.58;46.80;101625.91;4944893;28;112998;-75
2023/09/08 07:40:41;;;;;;;;;;;;;;;25.75;46.59;101633.28;4944167;28;126195;-76
2023/09/08 07:43:08;;;;;;;;;;;;;;;25.93;46.47;101635.25;4939584;28;123961;-76
2023/09/08 07:45:35;;;;;;;;;;;;;;;26.07;46.60;101632.03;4944178;28;114934;-76
2023/09/08 07:48:02;;;;;;;;;;;;;;;26.22;46.49;101625.06;4947137;28;113805;-76
2023/09/08 07:50:31;;;;;;;;;;;;;;;26.35;46.47;101627.44;4936129;28;125329;-76
2023/09/08 07:52:58;;;;;;;;;;;;;;;26.46;46.19;101625.47;4938072;28;124498;-76
2023/09/08 07:55:28;;;;;;;;;;;;;;;26.58;46.49;101630.53;4939805;28;114345;-75
2023/09/08 07:57:55;;;;;;;;;;;;;;;26.70;46.33;101627.63;4939215;28;111815;-76
2023/09/08 08:00:22;;;;;;;;;;;;;;;26.80;46.18;101629.25;4941667;28;124479;-76
2023/09/08 08:02:52;;;;;;;;;;;;;;;26.91;46.05;101625.41;4939370;28;122925;-76
2023/09/08 08:05:20;;;;;;;;;;;;;;;27.01;46.30;101625.31;4942909;28;115391;-76
2023/09/08 08:07:47;;;;;;;;;;;;;;;27.11;45.98;101630.69;4942123;28;115460;-76
2023/09/08 08:10:14;;;;;;;;;;;;;;;27.24;46.04;101625.69;4937682;28;124153;-76
2023/09/08 08:12:41;;;;;;;;;;;;;;;27.35;45.95;101633.59;4940804;28;124590;-76
2023/09/08 08:15:11;;;;;;;;;;;;;;;27.45;45.98;101627.19;4940279;28;115641;-76
2023/09/08 08:17:39;;;;;;;;;;;;;;;27.55;45.88;101633.38;4936262;28;115476;-76
2023/09/08 08:20:10;;;;;;;;;;;;;;;27.64;46.06;101632.41;4938483;28;124352;-76
2023/09/08 08:22:37;;;;;;;;;;;;;;;27.77;46.04;101632.81;4941440;28;124866;-76
2023/09/08 08:25:05;;;;;;;;;;;;;;;27.91;45.85;101628.63;4939612;28;115559;-76
2023/09/08 08:27:32;;;;;;;;;;;;;;;28.00;45.93;101626.81;4943978;28;112846;-75
2023/09/08 08:30:00;;;;;;;;;;;;;;;28.09;45.60;101625.81;4940995;28;124582;-76
2023/09/08 08:32:28;;;;;;;;;;;;;;;28.20;45.95;101626.50;4947810;28;124038;-75
2023/09/08 08:34:55;;;;;;;;;;;;;;;28.30;45.74;101627.25;4940745;28;114482;-76
2023/09/08 08:37:22;;;;;;;;;;;;;;;28.40;45.50;101627.94;4942034;28;113309;-76
2023/09/08 08:39:49;;;;;;;;;;;;;;;28.50;45.72;101625.91;4936100;28;123679;-76
2023/09/08 08:42:16;;;;;;;;;;;;;;;28.62;45.80;101625.63;4944054;28;125331;-76
2023/09/08 08:44:44;;;;;;;;;;;;;;;28.75;45.64;101636.88;4937566;28;115076;-76
2023/09/08 08:47:12;;;;;;;;;;;;;;;28.88;45.56;101637.22;4939952;28;113125;-76
2023/09/08 08:49:42;;;;;;;;;;;;;;;29.03;45.83;101633.81;4942362;28;124595;-76
2023/09/08 08:52:09;;;;;;;;;;;;;;;29.17;45.61;101635.88;4938149;28;124741;-75
2023/09/08 08:54:39;;;;;;;;;;;;;;;29.26;45.59;101634.00;4937727;28;114593;-76
2023/09/08 08:57:07;;;;;;;;;;;;;;;29.34;45.29;101630.38;4941036;28;112679;-76
2023/09/08 08:59:34;;;;;;;;;;;;;;;29.41;45.42;101636.88;4948077;28;124051;-76
2023/09/08 09:02:02;;;;;;;;;;;;;;;29.50;45.26;101624.91;4936113;28;124215;-76
2023/09/08 09:04:29;;;;;;;;;;;;;;;29.54;45.06;101626.25;4939514;28;116144;-76
2023/09/08 09:06:57;;;;;;;;;;;;;;;29.59;45.11;101615.66;4940968;28;114793;-76
2023/09/08 09:09:24;;;;;;;;;;;;;;;29.68;45.22;101622.78;4944763;28;124004;-75
2023/09/08 09:11:51;;;;;;;;;;;;;;;29.81;45.13;101626.88;4949773;28;124003;-75
2023/09/08 09:14:19;;;;;;;;;;;;;;;29.95;45.29;101617.06;4938622;28;114656;-76
2023/09/08 09:16:47;;;;;;;;;;;;;;;30.05;45.22;101621.28;4945323;28;114124;-75
2023/09/08 09:19:25;;;;;;;;;;;;;;;30.15;45.00;101617.47;4941121;28;124653;-76
2023/09/08 09:21:54;;;;;;;;;;;;;;;30.24;44.94;101621.88;4948774;28;123694;-75
2023/09/08 09:24:36;;;;;;;;;;;;;;;30.34;45.02;101621.66;4943057;28;114303;-76
2023/09/08 09:27:05;;;;;;;;;;;;;;;30.44;44.96;101616.81;4942139;28;113312;-77
2023/09/08 09:29:34;;;;;;;;;;;;;;;30.52;44.94;101613.19;4943012;28;123785;-76
2023/09/08 09:32:05;;;;;;;;;;;;;;;30.61;44.96;101617.53;4940834;28;123795;-76
2023/09/08 09:34:32;;;;;;;;;;;;;;;30.70;44.98;101619.16;4932937;28;114135;-76
2023/09/08 09:36:59;;;;;;;;;;;;;;;30.82;44.86;101625.94;4930626;28;114109;-76
2023/09/08 09:39:27;;;;;;;;;;;;;;;30.94;45.00;101622.78;4930220;28;124159;-76
2023/09/08 09:41:54;;;;;;;;;;;;;;;31.04;44.82;101617.88;4928909;28;127320;-76
2023/09/08 09:44:22;;;;;;;;;;;;;;;31.14;44.52;101623.97;4933391;28;114153;-75
2023/09/08 09:46:53;;;;;;;;;;;;;;;31.23;44.61;101611.91;4943051;28;113832;-76
2023/09/08 09:49:20;;;;;;;;;;;;;;;31.34;44.50;101617.94;4937104;28;124255;-76
2023/09/08 09:51:48;;;;;;;;;;;;;;;31.42;44.36;101620.59;4942808;28;125109;-76
2023/09/08 09:54:15;;;;;;;;;;;;;;;31.50;44.56;101619.69;4943431;28;115548;-76
2023/09/08 09:56:42;;;;;;;;;;;;;;;31.55;44.26;101626.31;4946812;28;113228;-76
2023/09/08 09:59:13;;;;;;;;;;;;;;;31.62;44.28;101621.75;4937022;28;123656;-77
2023/09/08 10:01:40;;;;;;;;;;;;;;;31.69;44.37;101626.47;4936674;28;124049;-76
2023/09/08 10:04:08;;;;;;;;;;;;;;;31.73;43.99;101622.31;4944416;28;114561;-76
2023/09/08 10:06:35;;;;;;;;;;;;;;;31.74;44.31;101618.53;4945305;28;114043;-76
2023/09/08 10:09:04;;;;;;;;;;;;;;;31.81;44.22;101627.69;4942145;28;123387;-76
2023/09/08 10:11:34;;;;;;;;;;;;;;;31.83;44.23;101620.13;4948128;28;122402;-76
2023/09/08 10:14:02;;;;;;;;;;;;;;;31.85;44.00;101612.56;4927337;28;113707;-76
2023/09/08 10:16:32;;;;;;;;;;;;;;;31.92;44.23;101618.97;4940799;28;114039;-76
2023/09/08 10:19:00;;;;;;;;;;;;;;;31.94;43.96;101614.16;4928776;28;123716;-77
2023/09/08 10:21:29;;;;;;;;;;;;;;;31.99;43.91;101611.69;4942035;28;123983;-76
2023/09/08 10:24:08;;;;;;;;;;;;;;;32.04;44.04;101613.03;4941577;28;114801;-77
2023/09/08 10:26:36;;;;;;;;;;;;;;;32.06;43.86;101605.47;4944687;28;114003;-76
2023/09/08 10:29:03;;;;;;;;;;;;;;;32.08;44.00;101608.84;4930102;28;123553;-76
2023/09/08 10:31:30;;;;;;;;;;;;;;;32.13;44.04;101612.72;4939546;28;124167;-76
2023/09/08 10:33:58;;;;;;;;;;;;;;;32.21;43.72;101603.53;4937115;28;113885;-76
2023/09/08 10:36:25;;;;;;;;;;;;;;;32.29;44.03;101606.16;4945161;28;113933;-76
2023/09/08 10:38:54;;;;;;;;;;;;;;;32.38;43.65;101605.00;4938578;28;123637;-76
2023/09/08 10:41:21;;;;;;;;;;;;;;;32.52;43.67;101605.13;4946058;28;124253;-76
2023/09/08 10:43:56;;;;;;;;;;;;;;;32.61;43.94;101601.25;4938657;28;116019;-76
2023/09/08 10:46:25;;;;;;;;;;;;;;;32.70;43.50;101607.44;4948047;28;114246;-76
2023/09/08 10:48:54;;;;;;;;;;;;;;;32.71;43.22;101604.50;4947313;28;124984;-76
2023/09/08 10:51:22;;;;;;;;;;;;;;;32.76;43.69;101610.25;4952057;28;124593;-76
2023/09/08 10:53:49;;;;;;;;;;;;;;;32.84;43.38;101602.94;4951353;28;114728;-76
2023/09/08 10:56:18;;;;;;;;;;;;;;;32.92;43.79;101605.50;4947714;28;113765;-76
2023/09/08 10:58:49;;;;;;;;;;;;;;;33.00;43.61;101608.09;4948650;28;125139;-76
2023/09/08 11:01:17;;;;;;;;;;;;;;;33.07;43.15;101598.03;4942550;28;124972;-76
2023/09/08 11:03:47;;;;;;;;;;;;;;;33.08;43.33;101594.25;4947240;28;115418;-76
2023/09/08 11:06:18;;;;;;;;;;;;;;;33.09;43.05;101601.41;4948815;28;112894;-76
2023/09/08 11:08:45;;;;;;;;;;;;;;;33.11;43.14;101593.84;4947590;28;124377;-76
2023/09/08 11:11:13;;;;;;;;;;;;;;;33.13;43.38;101597.28;4945610;28;124367;-76
2023/09/08 11:13:40;;;;;;;;;;;;;;;33.17;43.24;101598.56;4949110;28;115082;-76
2023/09/08 11:16:08;;;;;;;;;;;;;;;33.21;42.94;101598.16;4941347;28;113749;-76
2023/09/08 11:18:35;;;;;;;;;;;;;;;33.23;42.81;101590.56;4939703;28;125236;-76
2023/09/08 11:21:07;;;;;;;;;;;;;;;33.23;42.86;101601.53;4942991;28;123858;-76
2023/09/08 11:23:34;;;;;;;;;;;;;;;33.25;43.15;101593.97;4948295;28;114103;-75
2023/09/08 11:26:01;;;;;;;;;;;;;;;33.31;42.94;101594.00;4944179;28;113966;-76
2023/09/08 11:28:28;;;;;;;;;;;;;;;33.36;42.95;101594.25;4945639;28;123522;-76
2023/09/08 11:30:55;;;;;;;;;;;;;;;33.42;43.01;101589.84;4941953;28;124954;-76
2023/09/08 11:33:26;;;;;;;;;;;;;;;33.44;42.84;101598.72;4947829;28;116069;-75
2023/09/08 11:35:54;;;;;;;;;;;;;;;33.47;42.79;101595.56;4945016;28;114856;-76
2023/09/08 11:38:26;;;;;;;;;;;;;;;33.54;42.78;101593.69;4943668;28;124309;-76
2023/09/08 11:40:53;;;;;;;;;;;;;;;33.60;42.54;101596.69;4943301;28;123920;-76
2023/09/08 11:43:21;;;;;;;;;;;;;;;33.64;42.43;101592.50;4949016;28;114447;-76
2023/09/08 11:45:48;;;;;;;;;;;;;;;33.70;42.68;101591.69;4946103;28;115780;-76
2023/09/08 11:48:15;;;;;;;;;;;;;;;33.77;42.37;101592.56;4943066;28;124386;-76
2023/09/08 11:50:43;;;;;;;;;;;;;;;33.81;42.59;101588.34;4940418;28;124371;-76
2023/09/08 11:53:11;;;;;;;;;;;;;;;33.88;42.31;101594.72;4943168;28;114256;-76
2023/09/08 11:55:38;;;;;;;;;;;;;;;33.89;42.46;101590.94;4941609;28;114705;-76
2023/09/08 11:58:06;;;;;;;;;;;;;;;33.90;42.42;101592.63;4939392;28;124606;-76
2023/09/08 12:00:33;;;;;;;;;;;;;;;33.92;42.27;101585.00;4940067;28;123626;-76
2023/09/08 12:03:10;;;;;;;;;;;;;;;33.91;42.32;101586.09;4945293;28;115280;-76
2023/09/08 12:05:38;;;;;;;;;;;;;;;33.92;42.25;101590.50;4947248;28;114239;-76
2023/09/08 12:08:05;;;;;;;;;;;;;;;33.99;42.15;101589.72;4941024;28;124222;-76
2023/09/08 12:10:38;;;;;;;;;;;;;;;34.06;42.33;101585.09;4942385;28;96876;-76
2023/09/08 12:13:05;;;;;;;;;;;;;;;34.10;42.28;101586.38;4948791;28;113910;-76
2023/09/08 12:15:42;;;;;;;;;;;;;;;34.17;42.00;101579.00;4947896;28;113666;-76
2023/09/08 12:18:08;;;;;;;;;;;;;;;34.22;42.09;101579.22;4942856;28;124653;-77
2023/09/08 12:20:36;;;;;;;;;;;;;;;34.28;42.09;101581.16;4943070;28;125134;-76
2023/09/08 12:23:05;;;;;;;;;;;;;;;34.29;41.89;101574.59;4950283;28;115394;-76
2023/09/08 12:25:31;;;;;;;;;;;;;;;34.34;41.97;101582.22;4947243;28;114794;-76
2023/09/08 12:27:59;;;;;;;;;;;;;;;34.42;41.88;101583.91;4945457;28;124583;-76
2023/09/08 12:30:32;;;;;;;;;;;;;;;34.42;41.62;101578.41;4944456;28;123580;-76